^^
Grace C. Lehan Memorial Weather Station Historical Data
Daily Summary for February 3, 2021 Units:  English    Metric   Both
Daily Weekly Monthly Yearly
  High: Low: Average:
Temperature: 71.3 °F 59.2 °F 65.1 °F
Dew Point: 66.8 °F 55 °F 61.3 °F
Humidity: 94% 79% 87%
Wind Speed: 0.7mph 0mph 0mph
Wind Gust: 6mph - -
Wind- - SW
Pressure: 30.14 in 29.88 in -
Precipitation: 0.00 in    
 
 
Tabular Data for February 3, 2021
Time Temperature Dew Point Pressure Wind Wind Speed Wind Gust Humidity Rainfall Rate (Hourly) solar
00:04 62.3 °F 56.3 °F 30.14 in Calm     80.8% 0.00 in 0 W/m2
00:09 62.2 °F 56.3 °F 30.14 in Calm     81% 0.00 in 0 W/m2
00:14 62 °F 55.8 °F 30.14 in Calm     80% 0.00 in 0 W/m2
00:19 61.9 °F 55.9 °F 30.13 in Calm     80.7% 0.00 in 0 W/m2
00:24 61.8 °F 56 °F 30.13 in Calm     81% 0.00 in 0 W/m2
00:29 61.7 °F 55.9 °F 30.13 in Calm     81% 0.00 in 0 W/m2
00:34 61.7 °F 55.8 °F 30.13 in Calm     81% 0.00 in 0 W/m2
00:39 61.6 °F 55.7 °F 30.13 in Calm     81% 0.00 in 0 W/m2
00:44 61.5 °F 55.6 °F 30.13 in Calm     81% 0.00 in 0 W/m2
00:49 61.4 °F 55.5 °F 30.13 in Calm     81% 0.00 in 0 W/m2
00:54 61.4 °F 55.5 °F 30.13 in Calm     81% 0.00 in 0 W/m2
00:59 61.3 °F 55.4 °F 30.13 in Calm     81% 0.00 in 0 W/m2
01:04 61.1 °F 55.3 °F 30.12 in Calm     81% 0.00 in 0 W/m2
01:09 61 °F 55.2 °F 30.12 in Calm     81.1% 0.00 in 0 W/m2
01:14 61 °F 55.5 °F 30.11 in Calm     82% 0.00 in 0 W/m2
01:19 60.9 °F 55.4 °F 30.11 in Calm     82% 0.00 in 0 W/m2
01:24 60.8 °F 55.3 °F 30.11 in Calm     82% 0.00 in 0 W/m2
01:29 60.8 °F 55.2 °F 30.11 in Calm     82% 0.00 in 0 W/m2
01:34 60.7 °F 55.2 °F 30.12 in Calm     82% 0.00 in 0 W/m2
01:39 60.6 °F 55.4 °F 30.12 in Calm     82.9% 0.00 in 0 W/m2
01:44 60.5 °F 55.4 °F 30.11 in Calm     83% 0.00 in 0 W/m2
01:49 60.5 °F 55.3 °F 30.11 in Calm     83% 0.00 in 0 W/m2
01:54 60.4 °F 55.2 °F 30.11 in Calm     83% 0.00 in 0 W/m2
01:59 60.3 °F 55.1 °F 30.11 in Calm     83% 0.00 in 0 W/m2
02:04 60.3 °F 55.1 °F 30.11 in Calm     83% 0.00 in 0 W/m2
02:09 60.2 °F 55.3 °F 30.11 in Calm     83.8% 0.00 in 0 W/m2
02:14 60.1 °F 55.3 °F 30.11 in Calm     84% 0.00 in 0 W/m2
02:19 60 °F 55.2 °F 30.11 in Calm     84% 0.00 in 0 W/m2
02:24 59.9 °F 55 °F 30.11 in Calm     84% 0.00 in 0 W/m2
02:29 59.7 °F 55 °F 30.10 in Calm     84.5% 0.00 in 0 W/m2
02:34 59.5 °F 55 °F 30.11 in Calm     85% 0.00 in 0 W/m2
02:39 59.4 °F 55.2 °F 30.10 in Calm     85.8% 0.00 in 0 W/m2
02:44 59.3 °F 55.2 °F 30.10 in Calm     86% 0.00 in 0 W/m2
02:49 59.3 °F 55.1 °F 30.10 in Calm     86% 0.00 in 0 W/m2
02:54 59.3 °F 55.3 °F 30.10 in Calm     86.4% 0.00 in 0 W/m2
02:59 59.3 °F 55.4 °F 30.10 in Calm     87% 0.00 in 0 W/m2
03:04 59.3 °F 55.4 °F 30.10 in Calm     87% 0.00 in 0 W/m2
03:09 59.3 °F 55.4 °F 30.10 in Calm     87% 0.00 in 0 W/m2
03:14 59.3 °F 55.4 °F 30.10 in Calm     87% 0.00 in 0 W/m2
03:19 59.3 °F 55.4 °F 30.09 in Calm     87% 0.00 in 0 W/m2
03:24 59.3 °F 55.4 °F 30.09 in Calm     87% 0.00 in 0 W/m2
03:29 59.2 °F 55.4 °F 30.09 in Calm     87% 0.00 in 0 W/m2
03:34 59.2 °F 55.4 °F 30.09 in Calm     87.2% 0.00 in 0 W/m2
03:39 59.2 °F 55.7 °F 30.09 in Calm     88% 0.00 in 0 W/m2
03:44 59.3 °F 55.8 °F 30.09 in Calm     88% 0.00 in 0 W/m2
03:49 59.3 °F 55.8 °F 30.09 in Calm     88% 0.00 in 0 W/m2
03:54 59.3 °F 55.8 °F 30.09 in Calm     88% 0.00 in 0 W/m2
03:59 59.4 °F 55.8 °F 30.09 in Calm     88% 0.00 in 0 W/m2
04:09 59.5 °F 56 °F 30.10 in Calm     88% 0.00 in 0 W/m2
04:14 59.5 °F 56 °F 30.10 in Calm     88% 0.00 in 0 W/m2
04:19 59.6 °F 56.1 °F 30.10 in Calm     88% 0.00 in 0 W/m2
04:24 59.6 °F 56.1 °F 30.09 in Calm     88% 0.00 in 0 W/m2
04:29 59.7 °F 56.2 °F 30.09 in Calm     88% 0.00 in 0 W/m2
04:34 59.7 °F 56.2 °F 30.09 in Calm     88% 0.00 in 0 W/m2
04:39 59.8 °F 56.3 °F 30.10 in Calm     88.2% 0.00 in 0 W/m2
04:44 59.8 °F 56.6 °F 30.10 in Calm     89% 0.00 in 0 W/m2
04:49 59.9 °F 56.7 °F 30.10 in Calm     89% 0.00 in 0 W/m2
04:54 59.9 °F 56.7 °F 30.09 in Calm     89% 0.00 in 0 W/m2
04:59 59.9 °F 56.7 °F 30.09 in Calm     89% 0.00 in 0 W/m2
05:04 59.9 °F 56.7 °F 30.10 in Calm     89% 0.00 in 0 W/m2
05:09 60 °F 56.7 °F 30.10 in Calm     89% 0.00 in 0 W/m2
05:14 60 °F 56.8 °F 30.09 in Calm     89% 0.00 in 0 W/m2
05:19 60 °F 56.8 °F 30.10 in Calm     89% 0.00 in 0 W/m2
05:24 60 °F 56.8 °F 30.09 in Calm     89% 0.00 in 0 W/m2
05:29 60.1 °F 56.8 °F 30.09 in Calm     89% 0.00 in 5 W/m2
05:34 60.1 °F 56.8 °F 30.09 in Calm     89% 0.00 in 11 W/m2
05:39 60.2 °F 56.9 °F 30.08 in Calm     89% 0.00 in 12 W/m2
05:44 60.2 °F 56.9 °F 30.08 in Calm     89% 0.00 in 12 W/m2
05:49 60.2 °F 57 °F 30.08 in Calm     89% 0.00 in 14 W/m2
05:54 60.2 °F 57.1 °F 30.08 in Calm     89.5% 0.00 in 21 W/m2
05:59 60.2 °F 57.3 °F 30.07 in Calm     90% 0.00 in 28 W/m2
06:04 60.2 °F 57.3 °F 30.08 in Calm     90% 0.00 in 35 W/m2
06:09 60.2 °F 57.3 °F 30.08 in Calm     90% 0.00 in 37 W/m2
06:14 60.2 °F 57.3 °F 30.08 in Calm     90% 0.00 in 37 W/m2
06:19 60.2 °F 57.3 °F 30.08 in Calm     90% 0.00 in 35 W/m2
06:24 60.2 °F 57.3 °F 30.08 in Calm     90% 0.00 in 35 W/m2
06:29 60.2 °F 57.3 °F 30.08 in Calm     90% 0.00 in 42 W/m2
06:34 60.2 °F 57.3 °F 30.08 in Calm     90% 0.00 in 53 W/m2
06:39 60.2 °F 57.6 °F 30.08 in Calm     90.8% 0.00 in 69 W/m2
06:44 60.3 °F 57.7 °F 30.08 in Calm     91% 0.00 in 70 W/m2
06:49 60.3 °F 57.7 °F 30.08 in Calm     91% 0.00 in 69 W/m2
06:54 60.4 °F 57.7 °F 30.08 in Calm     91% 0.00 in 72 W/m2
06:59 60.4 °F 57.8 °F 30.08 in Calm     91% 0.00 in 79 W/m2
07:04 60.5 °F 57.9 °F 30.08 in Calm     91% 0.00 in 83 W/m2
07:09 60.6 °F 58 °F 30.08 in Calm     91% 0.00 in 83 W/m2
07:14 60.7 °F 58.1 °F 30.08 in Calm     91% 0.00 in 81 W/m2
07:19 60.8 °F 58.1 °F 30.08 in Calm     90.7% 0.00 in 83 W/m2
07:24 60.8 °F 57.9 °F 30.08 in Calm     90% 0.00 in 90 W/m2
07:29 60.9 °F 57.9 °F 30.08 in Calm     90% 0.00 in 93 W/m2
07:34 61 °F 58 °F 30.08 in Calm     90% 0.00 in 93 W/m2
07:39 61 °F 58.1 °F 30.07 in Calm     90% 0.00 in 84 W/m2
07:44 61 °F 57.8 °F 30.07 in Calm     89.3% 0.00 in 81 W/m2
07:49 61 °F 57.7 °F 30.07 in Calm     89% 0.00 in 84 W/m2
07:54 61 °F 57.7 °F 30.07 in Calm     89% 0.00 in 100 W/m2
07:59 61 °F 57.7 °F 30.07 in Calm     89% 0.00 in 118 W/m2
08:09 61.2 °F 58.3 °F 30.07 in Calm     90% 0.00 in 100 W/m2
08:14 61.3 °F 58.2 °F 30.07 in Calm     89.7% 0.00 in 125 W/m2
08:19 61.4 °F 58.1 °F 30.07 in Calm     89% 0.00 in 128 W/m2
08:24 61.5 °F 58.2 °F 30.07 in Calm     89% 0.00 in 127 W/m2
08:29 61.6 °F 58.3 °F 30.08 in Calm   1 mph 89% 0.00 in 171 W/m2
08:34 61.7 °F 58.5 °F 30.07 in Calm   1 mph 89% 0.00 in 199 W/m2
08:39 61.9 °F 58.6 °F 30.07 in Calm     89% 0.00 in 199 W/m2
08:44 62.1 °F 58.7 °F 30.07 in Calm     88.5% 0.00 in 183 W/m2
08:49 62.3 °F 58.7 °F 30.07 in Calm     87.8% 0.00 in 218 W/m2
08:54 62.5 °F 58.5 °F 30.07 in Calm     87% 0.00 in 237 W/m2
08:59 62.6 °F 58.8 °F 30.06 in Calm     87.3% 0.00 in 185 W/m2
09:04 62.8 °F 58.9 °F 30.06 in Calm     87% 0.00 in 178 W/m2
09:09 63 °F 59 °F 30.07 in Calm     86.6% 0.00 in 185 W/m2
09:14 63.1 °F 59 °F 30.07 in Calm     86.3% 0.00 in 221 W/m2
09:19 63.2 °F 59 °F 30.06 in Calm     86% 0.00 in 221 W/m2
09:24 63.4 °F 59.1 °F 30.06 in Calm     86% 0.00 in 204 W/m2
09:29 63.5 °F 59.1 °F 30.06 in Calm     85.7% 0.00 in 146 W/m2
09:34 63.5 °F 58.9 °F 30.06 in Calm     85% 0.00 in 125 W/m2
09:39 63.5 °F 58.7 °F 30.05 in Calm     84.2% 0.00 in 142 W/m2
09:44 63.5 °F 58.6 °F 30.05 in Calm     84% 0.00 in 251 W/m2
09:49 63.6 °F 58.8 °F 30.05 in Calm     84.5% 0.00 in 260 W/m2
09:54 63.9 °F 59.4 °F 30.05 in Calm     85.2% 0.00 in 236 W/m2
09:59 64.1 °F 59.1 °F 30.05 in Calm     83.6% 0.00 in 311 W/m2
10:04 64.3 °F 59.2 °F 30.05 in Calm     83.4% 0.00 in 271 W/m2
10:09 64.5 °F 58.9 °F 30.05 in Calm     82.1% 0.00 in 221 W/m2
10:14 64.6 °F 58.9 °F 30.05 in Calm     81.6% 0.00 in 227 W/m2
10:19 64.8 °F 59 °F 30.04 in Calm     81.6% 0.00 in 220 W/m2
10:24 64.9 °F 58.8 °F 30.04 in Calm     80.7% 0.00 in 308 W/m2
10:29 65 °F 59 °F 30.04 in Calm     81% 0.00 in 432 W/m2
10:34 65.3 °F 59 °F 30.04 in Calm     80.2% 0.00 in 301 W/m2
10:39 65.6 °F 59.5 °F 30.04 in Calm     80.7% 0.00 in 269 W/m2
10:44 65.7 °F 59.1 °F 30.04 in Calm     79% 0.00 in 257 W/m2
10:49 65.9 °F 59.4 °F 30.04 in Calm     79.6% 0.00 in 234 W/m2
10:54 66 °F 59.7 °F 30.04 in Calm   1 mph 80% 0.00 in 387 W/m2
10:59 66.1 °F 59.9 °F 30.04 in Calm   1 mph 80.2% 0.00 in 390 W/m2
11:04 66.3 °F 60.1 °F 30.03 in Calm   1 mph 80.2% 0.00 in 397 W/m2
11:09 66.5 °F 60.4 °F 30.03 in SW 0.1 mph 2 mph 80.5% 0.00 in 383 W/m2
11:14 66.7 °F 60.3 °F 30.04 in Calm   2 mph 80% 0.00 in 434 W/m2
11:19 66.9 °F 60.3 °F 30.04 in SW 0.1 mph 2 mph 79.5% 0.00 in 345 W/m2
11:24 67 °F 60.7 °F 30.03 in Calm   2 mph 80.2% 0.00 in 345 W/m2
11:29 67.2 °F 61.2 °F 30.03 in Calm   2 mph 80.9% 0.00 in 255 W/m2
11:34 67.3 °F 60.9 °F 30.03 in Calm   2 mph 80% 0.00 in 258 W/m2
11:39 67.3 °F 61.1 °F 30.03 in Calm     80.5% 0.00 in 301 W/m2
11:44 67.5 °F 61.3 °F 30.03 in SW 0.7 mph 6 mph 80.5% 0.00 in 359 W/m2
11:49 67.8 °F 61.6 °F 30.03 in SW 0.2 mph 6 mph 80.5% 0.00 in 413 W/m2
11:54 67.9 °F 61.8 °F 30.03 in Calm   6 mph 81% 0.00 in 415 W/m2
11:59 68 °F 62.3 °F 30.02 in Calm   6 mph 82.1% 0.00 in 374 W/m2
12:04 67.9 °F 62.6 °F 30.01 in Calm     83% 0.00 in 311 W/m2
12:09 67.9 °F 62.8 °F 30.01 in Calm     83.7% 0.00 in 311 W/m2
12:14 67.9 °F 63.4 °F 30.02 in Calm     85.5% 0.00 in 362 W/m2
12:19 68 °F 63.9 °F 30.01 in Calm     86.6% 0.00 in 294 W/m2
12:24 67.8 °F 63.5 °F 30.01 in Calm     86% 0.00 in 223 W/m2
12:29 67.7 °F 63.6 °F 30.01 in Calm     86.6% 0.00 in 236 W/m2
12:34 67.7 °F 63.6 °F 30.01 in Calm     86.7% 0.00 in 229 W/m2
12:39 67.7 °F 63.8 °F 30.00 in Calm     87.4% 0.00 in 285 W/m2
12:44 67.8 °F 64.1 °F 30.00 in Calm   1 mph 88% 0.00 in 311 W/m2
12:49 67.7 °F 63.9 °F 30.00 in Calm   3 mph 87.3% 0.00 in 311 W/m2
12:54 67.7 °F 64 °F 30.00 in Calm   3 mph 88% 0.00 in 250 W/m2
12:59 67.8 °F 64.2 °F 30.00 in Calm   3 mph 88.1% 0.00 in 220 W/m2
13:04 67.9 °F 64.2 °F 30.00 in Calm   3 mph 88% 0.00 in 211 W/m2
13:09 67.9 °F 64.2 °F 30.00 in Calm   1 mph 88.1% 0.00 in 250 W/m2
13:13 67.9 °F 64.5 °F 29.99 in Calm   1 mph 89% 0.00 in 195 W/m2
13:19 67.9 °F 64.6 °F 29.99 in Calm   1 mph 89.2% 0.00 in 178 W/m2
13:24 67.9 °F 64.9 °F 29.99 in Calm   1 mph 90% 0.00 in 148 W/m2
13:29 67.9 °F 64.9 °F 29.99 in Calm   1 mph 90% 0.00 in 156 W/m2
13:34 67.9 °F 64.9 °F 29.99 in Calm   1 mph 90% 0.00 in 181 W/m2
13:39 67.9 °F 64.9 °F 29.99 in Calm     90% 0.00 in 178 W/m2
13:44 68 °F 65.2 °F 29.99 in Calm     90.7% 0.00 in 163 W/m2
13:49 68 °F 65.3 °F 29.99 in Calm   1 mph 91% 0.00 in 144 W/m2
13:54 67.9 °F 65.2 °F 29.99 in Calm   1 mph 91% 0.00 in 146 W/m2
13:59 68 °F 65.2 °F 29.98 in Calm   1 mph 91% 0.00 in 167 W/m2
14:04 68 °F 65.3 °F 29.98 in Calm   1 mph 91% 0.00 in 199 W/m2
14:09 68 °F 65.3 °F 29.98 in Calm     91% 0.00 in 200 W/m2
14:14 68 °F 65.3 °F 29.98 in Calm     91% 0.00 in 322 W/m2
14:19 68.1 °F 65.5 °F 29.97 in SSW 0.1 mph 2 mph 91.4% 0.00 in 274 W/m2
14:24 68.3 °F 65.6 °F 29.97 in Calm   2 mph 91.1% 0.00 in 255 W/m2
14:29 68.4 °F 65.7 °F 29.97 in Calm   2 mph 91% 0.00 in 248 W/m2
14:34 68.5 °F 65.7 °F 29.97 in Calm   2 mph 90.5% 0.00 in 262 W/m2
14:39 68.8 °F 65.7 °F 29.97 in SSW 0.1 mph 4 mph 90% 0.00 in 327 W/m2
14:44 69.1 °F 66.2 °F 29.96 in Calm   4 mph 90.3% 0.00 in 380 W/m2
14:49 69.4 °F 66.3 °F 29.96 in Calm   4 mph 89.8% 0.00 in 355 W/m2
14:54 69.7 °F 66.3 °F 29.96 in Calm   4 mph 89% 0.00 in 367 W/m2
14:59 70 °F 66.7 °F 29.96 in SSW 0.1 mph 4 mph 89% 0.00 in 385 W/m2
15:04 70.5 °F 66.8 °F 29.96 in SSW 0.4 mph 5 mph 88.1% 0.00 in 352 W/m2
15:09 70.7 °F 66.6 °F 29.96 in SW 0.2 mph 5 mph 86.9% 0.00 in 236 W/m2
15:14 70.8 °F 66.3 °F 29.96 in Calm   5 mph 85.8% 0.00 in 390 W/m2
15:19 70.8 °F 66.3 °F 29.95 in Calm   5 mph 85.6% 0.00 in 454 W/m2
15:24 70.9 °F 66.4 °F 29.94 in SW 0.2 mph 5 mph 85.6% 0.00 in 299 W/m2
15:29 71.1 °F 66.3 °F 29.94 in SW 0.5 mph 5 mph 85% 0.00 in 236 W/m2
15:34 71.2 °F 66.4 °F 29.95 in Calm   5 mph 84.8% 0.00 in 264 W/m2
15:39 71.1 °F 66.2 °F 29.95 in SW 0.1 mph 4 mph 84.3% 0.00 in 264 W/m2
15:44 71.2 °F 66.5 °F 29.95 in Calm   4 mph 85% 0.00 in 239 W/m2
15:49 71.3 °F 66.6 °F 29.95 in SSW 0.2 mph 4 mph 85% 0.00 in 181 W/m2
15:54 71.3 °F 66.3 °F 29.95 in SW 0.5 mph 6 mph 84.2% 0.00 in 144 W/m2
15:59 71.2 °F 66.1 °F 29.95 in Calm   6 mph 84% 0.00 in 125 W/m2
16:00 71 °F 65.9 °F 29.94 in Calm   6 mph 84% 0.00 in 114 W/m2
16:09 70.7 °F 65.9 °F 29.94 in WSW 0.1 mph 3 mph 84.8% 0.00 in 148 W/m2
16:14 70.5 °F 65.7 °F 29.94 in Calm   3 mph 85% 0.00 in 171 W/m2
16:19 70.4 °F 65.8 °F 29.94 in Calm   3 mph 85.3% 0.00 in 165 W/m2
16:24 70.3 °F 65.9 °F 29.93 in WSW 0.1 mph 3 mph 86% 0.00 in 155 W/m2
16:29 70.2 °F 65.8 °F 29.93 in Calm   3 mph 86% 0.00 in 178 W/m2
16:34 70.2 °F 65.9 °F 29.93 in Calm   3 mph 86.3% 0.00 in 227 W/m2
16:39 70.3 °F 66.1 °F 29.93 in Calm     86.5% 0.00 in 199 W/m2
16:44 70.3 °F 65.9 °F 29.93 in Calm     86% 0.00 in 206 W/m2
16:49 70.4 °F 66.1 °F 29.93 in Calm     86.3% 0.00 in 132 W/m2
16:54 70.3 °F 65.9 °F 29.93 in WSW 0.1 mph 4 mph 86% 0.00 in 132 W/m2
16:59 70.2 °F 65.8 °F 29.92 in WSW 0.1 mph 4 mph 86% 0.00 in 188 W/m2
17:04 70.1 °F 65.7 °F 29.93 in SW 0.5 mph 5 mph 86% 0.00 in 188 W/m2
17:09 70.1 °F 65.7 °F 29.93 in Calm   5 mph 86% 0.00 in 123 W/m2
17:14 70.1 °F 65.8 °F 29.92 in Calm   5 mph 86.2% 0.00 in 125 W/m2
17:19 70.1 °F 65.8 °F 29.92 in Calm   5 mph 86.4% 0.00 in 185 W/m2
17:24 70.2 °F 66.1 °F 29.92 in Calm   5 mph 87% 0.00 in 169 W/m2
17:29 70.3 °F 66.2 °F 29.92 in Calm   5 mph 87% 0.00 in 121 W/m2
17:34 70.3 °F 66.1 °F 29.92 in Calm   5 mph 86.4% 0.00 in 93 W/m2
17:39 70.2 °F 65.8 °F 29.92 in Calm     86% 0.00 in 83 W/m2
17:44 70.1 °F 65.7 °F 29.92 in Calm     86% 0.00 in 65 W/m2
17:49 70 °F 65.7 °F 29.92 in Calm   2 mph 86.2% 0.00 in 76 W/m2
17:54 69.9 °F 65.8 °F 29.92 in Calm   2 mph 86.9% 0.00 in 81 W/m2
17:59 69.8 °F 65.8 °F 29.92 in Calm   2 mph 87% 0.00 in 74 W/m2
18:04 69.8 °F 65.7 °F 29.92 in Calm   2 mph 87% 0.00 in 70 W/m2
18:09 69.7 °F 65.7 °F 29.92 in Calm     87.1% 0.00 in 69 W/m2
18:14 69.6 °F 65.9 °F 29.92 in SW 0.1 mph 2 mph 88% 0.00 in 49 W/m2
18:19 69.6 °F 65.9 °F 29.92 in Calm   2 mph 88% 0.00 in 42 W/m2
18:24 69.6 °F 65.9 °F 29.92 in South 0.1 mph 3 mph 88% 0.00 in 46 W/m2
18:29 69.5 °F 65.8 °F 29.91 in Calm   3 mph 88% 0.00 in 40 W/m2
18:34 69.5 °F 65.8 °F 29.91 in Calm   3 mph 88% 0.00 in 42 W/m2
18:39 69.5 °F 65.8 °F 29.91 in South 0.3 mph 5 mph 88% 0.00 in 72 W/m2
18:44 69.5 °F 65.8 °F 29.92 in Calm   5 mph 88% 0.00 in 72 W/m2
18:49 69.5 °F 65.8 °F 29.92 in Calm   5 mph 88% 0.00 in 58 W/m2
18:54 69.6 °F 65.9 °F 29.92 in Calm   5 mph 88% 0.00 in 65 W/m2
18:59 69.6 °F 65.9 °F 29.91 in Calm   5 mph 88% 0.00 in 67 W/m2
19:04 69.7 °F 66 °F 29.91 in South 0.1 mph 5 mph 88% 0.00 in 63 W/m2
19:09 69.7 °F 66 °F 29.91 in Calm   1 mph 88% 0.00 in 51 W/m2
19:14 69.7 °F 65.9 °F 29.92 in Calm   1 mph 88% 0.00 in 46 W/m2
19:15 69.6 °F 65.9 °F 29.91 in Calm   1 mph 88% 0.00 in 39 W/m2
19:30 69.5 °F 65.8 °F 29.92 in Calm   3 mph 88% 0.00 in 37 W/m2
20:04 68.9 °F 65.7 °F 29.92 in Calm   3 mph 89.7% 0.00 in 37 W/m2
20:09 68.7 °F 65.7 °F 29.92 in Calm     90% 0.00 in 0 W/m2
20:14 68.6 °F 65.6 °F 29.92 in SSW 0.1 mph 3 mph 90% 0.00 in 0 W/m2
20:19 68.5 °F 65.5 °F 29.92 in SSW 0.3 mph 3 mph 90% 0.00 in 0 W/m2
20:24 68.5 °F 65.4 °F 29.92 in SSW 0.1 mph 3 mph 90% 0.00 in 0 W/m2
20:29 68.4 °F 65.4 °F 29.92 in SSW 0.2 mph 3 mph 90.4% 0.00 in 0 W/m2
20:34 68.3 °F 65.4 °F 29.92 in SSW 0.1 mph 3 mph 90.4% 0.00 in 0 W/m2
20:39 68.2 °F 65.5 °F 29.92 in Calm   2 mph 91% 0.00 in 0 W/m2
20:44 68.2 °F 65.5 °F 29.92 in SW 0.3 mph 6 mph 91% 0.00 in 0 W/m2
20:49 68.2 °F 65.5 °F 29.92 in Calm   6 mph 91% 0.00 in 0 W/m2
20:54 68.2 °F 65.5 °F 29.92 in Calm   6 mph 91% 0.00 in 0 W/m2
20:59 68.2 °F 65.5 °F 29.92 in Calm   6 mph 91% 0.00 in 0 W/m2
21:04 68.2 °F 65.5 °F 29.92 in Calm   6 mph 91% 0.00 in 0 W/m2
21:09 68.2 °F 65.5 °F 29.93 in Calm   2 mph 91% 0.00 in 0 W/m2
21:14 68.1 °F 65.4 °F 29.93 in Calm   2 mph 91% 0.00 in 0 W/m2
21:19 68.1 °F 65.4 °F 29.93 in Calm   2 mph 91% 0.00 in 0 W/m2
21:24 68.1 °F 65.4 °F 29.93 in SW 0.2 mph 4 mph 91% 0.00 in 0 W/m2
21:29 68.1 °F 65.4 °F 29.93 in Calm   4 mph 91% 0.00 in 0 W/m2
21:34 68 °F 65.3 °F 29.93 in Calm   4 mph 91% 0.00 in 0 W/m2
21:39 67.9 °F 65.4 °F 29.92 in Calm     91.5% 0.00 in 0 W/m2
21:44 67.9 °F 65.5 °F 29.92 in Calm     92% 0.00 in 0 W/m2
21:49 67.8 °F 65.4 °F 29.92 in Calm     92% 0.00 in 0 W/m2
21:54 67.8 °F 65.4 °F 29.92 in Calm     92% 0.00 in 0 W/m2
21:59 67.7 °F 65.3 °F 29.92 in Calm     92% 0.00 in 0 W/m2
22:04 67.7 °F 65.3 °F 29.92 in Calm     92% 0.00 in 0 W/m2
22:09 67.6 °F 65.2 °F 29.92 in Calm     92% 0.00 in 0 W/m2
22:14 67.6 °F 65.2 °F 29.92 in Calm     92% 0.00 in 0 W/m2
22:19 67.5 °F 65.1 °F 29.92 in Calm     92% 0.00 in 0 W/m2
22:24 67.5 °F 65.1 °F 29.92 in Calm     92% 0.00 in 0 W/m2
22:29 67.4 °F 65 °F 29.92 in Calm     92% 0.00 in 0 W/m2
22:34 67.2 °F 64.9 °F 29.91 in Calm     92.3% 0.00 in 0 W/m2
22:39 67.1 °F 65 °F 29.91 in Calm     93% 0.00 in 0 W/m2
22:44 67 °F 64.9 °F 29.91 in Calm   1 mph 93% 0.00 in 0 W/m2
22:49 67 °F 64.9 °F 29.91 in Calm   1 mph 93% 0.00 in 0 W/m2
22:54 66.9 °F 64.8 °F 29.90 in Calm   1 mph 93% 0.00 in 0 W/m2
22:59 66.8 °F 64.7 °F 29.90 in Calm   1 mph 93% 0.00 in 0 W/m2
23:04 66.8 °F 64.7 °F 29.90 in Calm   1 mph 93% 0.00 in 0 W/m2
23:09 66.7 °F 64.8 °F 29.90 in Calm     93.4% 0.00 in 0 W/m2
23:14 66.7 °F 64.9 °F 29.89 in Calm     94% 0.00 in 0 W/m2
23:19 66.6 °F 64.8 °F 29.90 in Calm     94% 0.00 in 0 W/m2
23:24 66.6 °F 64.8 °F 29.89 in Calm     94% 0.00 in 0 W/m2
23:29 66.6 °F 64.8 °F 29.89 in Calm     94% 0.00 in 0 W/m2
23:34 66.5 °F 64.7 °F 29.89 in SW 0.1 mph 3 mph 94% 0.00 in 0 W/m2
23:39 66.5 °F 64.7 °F 29.89 in Calm   3 mph 94% 0.00 in 0 W/m2
23:44 66.5 °F 64.7 °F 29.88 in Calm   3 mph 94% 0.00 in 0 W/m2
23:49 66.4 °F 64.6 °F 29.88 in Calm   3 mph 94% 0.00 in 0 W/m2
23:54 66.4 °F 64.6 °F 29.88 in Calm   3 mph 94% 0.00 in 0 W/m2
23:59 66.4 °F 64.6 °F 29.88 in Calm   3 mph 94% 0.00 in 0 W/m2
Hartford County Weather
Compliments of Weather Underground - 4 mb